TimeCST,TemperatureF,Dew PointF,Humidity,Sea Level PressureIn,VisibilityMPH,Wind Direction,Wind SpeedMPH,Gust SpeedMPH,PrecipitationIn,Events,Conditions,WindDirDegrees,DateUTC
12:53 AM,42.1,39.9,92,30.05,10.0,North,3.5,-,N/A,,Clear,360,2013-02-23 06:53:00
1:53 AM,41.0,37.9,89,30.04,10.0,NE,3.5,-,N/A,,Scattered Clouds,40,2013-02-23 07:53:00
2:53 AM,39.9,37.0,89,30.02,10.0,North,5.8,-,N/A,,Clear,10,2013-02-23 08:53:00
3:53 AM,37.9,34.0,86,30.01,10.0,North,6.9,-,N/A,,Clear,10,2013-02-23 09:53:00
4:53 AM,37.0,33.1,86,30.01,10.0,North,3.5,-,N/A,,Clear,10,2013-02-23 10:53:00
6:53 AM,35.1,32.0,89,30.05,10.0,Calm,Calm,-,N/A,,Clear,0,2013-02-23 12:53:00
7:53 AM,36.0,32.0,86,30.06,10.0,NE,4.6,-,N/A,,Clear,40,2013-02-23 13:53:00
8:53 AM,39.0,32.0,76,30.06,10.0,ENE,5.8,-,N/A,,Clear,60,2013-02-23 14:53:00
9:53 AM,43.0,33.1,68,30.07,10.0,ENE,4.6,-,N/A,,Clear,60,2013-02-23 15:53:00
10:53 AM,46.9,35.1,63,30.04,10.0,North,6.9,-,N/A,,Clear,10,2013-02-23 16:53:00
11:53 AM,51.1,37.9,61,30.03,10.0,NNE,8.1,-,N/A,,Clear,20,2013-02-23 17:53:00
12:53 PM,53.1,37.0,55,30.00,10.0,Variable,6.9,-,N/A,,Clear,0,2013-02-23 18:53:00
1:53 PM,55.9,37.9,51,29.96,10.0,Variable,5.8,-,N/A,,Clear,0,2013-02-23 19:53:00
2:53 PM,57.0,37.0,47,29.97,10.0,NNW,8.1,-,N/A,,Clear,330,2013-02-23 20:53:00
3:53 PM,57.9,36.0,44,29.96,10.0,NNW,6.9,-,N/A,,Clear,340,2013-02-23 21:53:00
4:53 PM,57.0,36.0,45,29.96,10.0,Variable,4.6,-,N/A,,Clear,0,2013-02-23 22:53:00
5:53 PM,55.9,35.1,45,29.95,10.0,Calm,Calm,-,N/A,,Clear,0,2013-02-23 23:53:00
6:53 PM,50.0,36.0,59,29.96,10.0,Calm,Calm,-,N/A,,Clear,0,2013-02-24 00:53:00
7:53 PM,43.0,35.1,74,29.96,10.0,Calm,Calm,-,N/A,,Clear,0,2013-02-24 01:53:00
9:53 PM,42.1,39.9,92,29.99,10.0,Calm,Calm,-,N/A,,Clear,0,2013-02-24 03:53:00
10:53 PM,41.0,37.9,89,29.99,10.0,Calm,Calm,-,N/A,,Clear,0,2013-02-24 04:53:00
11:53 PM,37.9,36.0,93,29.99,9.0,Calm,Calm,-,N/A,,Clear,0,2013-02-24 05:53:00